Time;durP1;ratioP1;P1;durP2;ratioP2;P2;SDS_P1;SDS_P2;PMS_P1;PMS_P2;Temp;Humidity;BMP_temperature;BMP_pressure;BME280_temperature;BME280_humidity;BME280_pressure;Samples;Min_cycle;Max_cycle;Signal;HPM_P1;HPM_P2
2021/12/20 00:02:16;;;;;;;;;;;6.30;99.90;;;;;;5068470;28;19974;-38
2021/12/20 00:04:44;;;;;;;;;;;6.20;99.90;;;;;;5066417;28;19924;-38
2021/12/20 00:07:11;;;;;;;;;;;6.20;99.90;;;;;;5069809;28;19925;-38
2021/12/20 00:09:39;;;;;;;;;;;6.20;99.90;;;;;;5068906;28;20275;-38
2021/12/20 00:12:06;;;;;;;;;;;6.10;99.90;;;;;;5067564;28;19998;-40
2021/12/20 00:14:33;;;;;;;;;;;6.10;99.90;;;;;;5067567;28;19932;-38
2021/12/20 00:17:00;;;;;;;;;;;6.10;99.90;;;;;;5067232;28;20368;-39
2021/12/20 00:19:27;;;;;;;;;;;6.10;99.90;;;;;;5067465;28;19963;-39
2021/12/20 00:21:53;;;;;;;;;;;6.10;99.90;;;;;;5065903;28;19933;-38
2021/12/20 00:24:20;;;;;;;;;;;6.10;99.90;;;;;;5051477;28;19943;-41
2021/12/20 00:26:49;;;;;;;;;;;6.10;99.90;;;;;;5065615;28;19928;-38
2021/12/20 00:29:15;;;;;;;;;;;6.10;99.90;;;;;;5065925;28;19979;-38
2021/12/20 00:31:42;;;;;;;;;;;6.10;99.90;;;;;;5068948;28;19964;-38
2021/12/20 00:34:09;;;;;;;;;;;6.10;99.90;;;;;;5072365;28;19929;-38
2021/12/20 00:36:36;;;;;;;;;;;6.00;99.90;;;;;;5060790;28;20300;-39
2021/12/20 00:41:47;;;;;;;;;;;6.10;99.90;;;;;;5081814;28;19931;-38
2021/12/20 00:44:15;;;;;;;;;;;6.00;99.90;;;;;;5071235;28;19924;-39
2021/12/20 00:46:42;;;;;;;;;;;6.00;99.90;;;;;;5073834;28;20017;-38
2021/12/20 00:49:08;;;;;;;;;;;6.00;99.90;;;;;;5071297;28;20450;-38
2021/12/20 00:51:35;;;;;;;;;;;6.00;99.90;;;;;;5054586;28;20440;-38
2021/12/20 00:54:02;;;;;;;;;;;6.00;99.90;;;;;;5072712;28;19946;-38
2021/12/20 00:56:29;;;;;;;;;;;6.00;99.90;;;;;;5075637;28;19924;-38
2021/12/20 00:58:55;;;;;;;;;;;6.00;99.90;;;;;;5076061;28;19932;-38
2021/12/20 01:01:23;;;;;;;;;;;6.00;99.90;;;;;;5073528;28;19946;-38
2021/12/20 01:03:50;;;;;;;;;;;6.00;99.90;;;;;;5075719;28;19931;-39
2021/12/20 01:06:17;;;;;;;;;;;6.00;99.90;;;;;;5075370;28;19924;-39
2021/12/20 01:08:45;;;;;;;;;;;6.00;99.90;;;;;;5073597;28;19924;-37
2021/12/20 01:11:14;;;;;;;;;;;6.00;99.90;;;;;;5075785;28;19998;-38
2021/12/20 01:13:41;;;;;;;;;;;6.00;99.90;;;;;;5074120;28;19924;-41
2021/12/20 01:16:08;;;;;;;;;;;6.00;99.90;;;;;;5073634;28;19982;-38
2021/12/20 01:18:36;;;;;;;;;;;6.00;99.90;;;;;;5074428;28;19924;-39
2021/12/20 01:21:03;;;;;;;;;;;6.00;99.90;;;;;;5075240;28;19934;-38
2021/12/20 01:23:30;;;;;;;;;;;6.10;99.90;;;;;;5074396;28;19939;-38
2021/12/20 01:25:57;;;;;;;;;;;6.00;99.90;;;;;;5071015;28;19999;-38
2021/12/20 01:28:24;;;;;;;;;;;6.00;99.90;;;;;;5066687;28;19924;-38
2021/12/20 01:30:50;;;;;;;;;;;6.00;99.90;;;;;;5074042;28;19946;-38
2021/12/20 01:33:17;;;;;;;;;;;6.00;99.90;;;;;;5075276;28;19986;-38
2021/12/20 01:35:45;;;;;;;;;;;6.00;99.90;;;;;;5073036;28;19939;-38
2021/12/20 01:38:12;;;;;;;;;;;5.90;99.90;;;;;;5074968;28;19924;-39
2021/12/20 01:40:39;;;;;;;;;;;6.00;99.90;;;;;;5074920;28;19924;-41
2021/12/20 01:43:06;;;;;;;;;;;5.90;99.90;;;;;;5074750;28;20046;-38
2021/12/20 01:45:33;;;;;;;;;;;5.90;99.90;;;;;;5074062;28;20307;-38
2021/12/20 01:48:08;;;;;;;;;;;5.90;99.90;;;;;;5073873;28;19928;-40
2021/12/20 01:50:41;;;;;;;;;;;5.90;99.90;;;;;;5074179;28;20361;-38
2021/12/20 01:53:09;;;;;;;;;;;5.90;99.90;;;;;;5073709;28;19924;-39
2021/12/20 01:55:36;;;;;;;;;;;5.90;99.90;;;;;;5074280;28;19930;-38
2021/12/20 01:58:03;;;;;;;;;;;5.80;99.90;;;;;;5083389;28;20341;-38
2021/12/20 02:00:30;;;;;;;;;;;5.80;99.90;;;;;;5070995;28;19939;-40
2021/12/20 02:02:59;;;;;;;;;;;5.80;99.90;;;;;;5076094;28;20288;-39
2021/12/20 02:05:39;;;;;;;;;;;5.80;99.90;;;;;;5069581;28;19933;-38
2021/12/20 02:08:18;;;;;;;;;;;5.80;99.90;;;;;;5054640;28;19925;-38
2021/12/20 02:10:46;;;;;;;;;;;5.80;99.90;;;;;;5053034;28;19929;-38
2021/12/20 02:13:13;;;;;;;;;;;5.80;99.90;;;;;;5071873;28;20006;-38
2021/12/20 02:15:40;;;;;;;;;;;5.80;99.90;;;;;;5073218;28;19929;-38
2021/12/20 02:18:06;;;;;;;;;;;5.80;99.90;;;;;;5073112;28;20031;-39
2021/12/20 02:20:38;;;;;;;;;;;5.80;99.90;;;;;;5073691;28;19924;-38
2021/12/20 02:23:05;;;;;;;;;;;5.80;99.90;;;;;;5073856;28;19928;-38
2021/12/20 02:25:32;;;;;;;;;;;5.80;99.90;;;;;;5072618;28;20068;-38
2021/12/20 02:27:59;;;;;;;;;;;5.80;99.90;;;;;;5072287;28;19924;-38
2021/12/20 02:30:42;;;;;;;;;;;5.80;99.90;;;;;;5069991;28;19925;-38
2021/12/20 02:38:38;;;;;;;;;;;5.70;99.90;;;;;;5069523;28;20059;-38
2021/12/20 02:41:06;;;;;;;;;;;5.70;99.90;;;;;;5068541;28;19924;-38
2021/12/20 02:43:36;;;;;;;;;;;5.70;99.90;;;;;;5073417;28;20380;-37
2021/12/20 02:46:06;;;;;;;;;;;5.70;99.90;;;;;;5072910;28;19982;-38
2021/12/20 02:48:32;;;;;;;;;;;5.70;99.90;;;;;;5072092;28;19970;-38
2021/12/20 02:51:00;;;;;;;;;;;5.70;99.90;;;;;;5073134;28;20292;-39
2021/12/20 02:53:27;;;;;;;;;;;5.70;99.90;;;;;;5072191;28;20295;-38
2021/12/20 02:55:54;;;;;;;;;;;5.60;99.90;;;;;;5073028;28;19928;-39
2021/12/20 02:58:21;;;;;;;;;;;5.60;99.90;;;;;;5070845;28;19959;-38
2021/12/20 03:00:47;;;;;;;;;;;5.60;99.90;;;;;;5072444;28;19925;-38
2021/12/20 03:03:14;;;;;;;;;;;5.60;99.90;;;;;;5072968;28;19931;-38
2021/12/20 03:05:41;;;;;;;;;;;5.60;99.90;;;;;;5072951;28;19924;-38
2021/12/20 03:08:09;;;;;;;;;;;5.60;99.90;;;;;;5070325;28;19954;-39
2021/12/20 03:10:40;;;;;;;;;;;5.60;99.90;;;;;;5070829;28;19971;-38
2021/12/20 03:13:06;;;;;;;;;;;5.60;99.90;;;;;;5068811;28;19931;-37
2021/12/20 03:15:33;;;;;;;;;;;5.60;99.90;;;;;;5057047;28;19936;-38
2021/12/20 03:18:00;;;;;;;;;;;5.50;99.90;;;;;;5071946;28;20058;-40
2021/12/20 03:20:27;;;;;;;;;;;5.50;99.90;;;;;;5072105;28;20362;-38
2021/12/20 03:22:54;;;;;;;;;;;5.50;99.90;;;;;;5070768;28;19925;-38
2021/12/20 03:25:22;;;;;;;;;;;5.50;99.90;;;;;;5069973;28;19932;-38
2021/12/20 03:27:49;;;;;;;;;;;5.50;99.90;;;;;;5072521;28;19931;-38
2021/12/20 03:30:16;;;;;;;;;;;5.50;99.90;;;;;;5062023;28;19960;-39
2021/12/20 03:32:42;;;;;;;;;;;5.50;99.90;;;;;;5072136;28;20343;-38
2021/12/20 03:35:10;;;;;;;;;;;5.50;99.90;;;;;;5073025;28;19928;-38
2021/12/20 03:37:36;;;;;;;;;;;5.40;99.90;;;;;;5070701;28;19928;-38
2021/12/20 03:40:04;;;;;;;;;;;5.40;99.90;;;;;;5073148;28;19939;-37
2021/12/20 03:42:32;;;;;;;;;;;5.40;99.90;;;;;;5071301;28;19981;-37
2021/12/20 03:44:58;;;;;;;;;;;5.40;99.90;;;;;;5072743;28;19924;-38
2021/12/20 03:47:25;;;;;;;;;;;5.40;99.90;;;;;;5072844;28;19931;-38
2021/12/20 03:49:52;;;;;;;;;;;5.30;99.90;;;;;;5072445;28;20015;-38
2021/12/20 03:52:19;;;;;;;;;;;5.40;99.90;;;;;;5067590;28;20337;-38
2021/12/20 03:54:46;;;;;;;;;;;5.30;99.90;;;;;;5056928;28;20278;-38
2021/12/20 03:57:12;;;;;;;;;;;5.30;99.90;;;;;;5069522;28;20019;-39
2021/12/20 03:59:40;;;;;;;;;;;5.30;99.90;;;;;;5067980;28;19924;-38
2021/12/20 04:02:07;;;;;;;;;;;5.30;99.90;;;;;;5052962;28;19932;-38
2021/12/20 04:04:34;;;;;;;;;;;5.30;99.90;;;;;;5064148;28;20042;-38
2021/12/20 04:07:01;;;;;;;;;;;5.30;99.90;;;;;;5070617;28;19974;-38
2021/12/20 04:09:28;;;;;;;;;;;5.30;99.90;;;;;;5072334;28;19928;-38
2021/12/20 04:11:54;;;;;;;;;;;5.20;99.90;;;;;;5068420;28;19970;-37
2021/12/20 04:14:21;;;;;;;;;;;5.30;99.90;;;;;;5055826;28;19924;-38
2021/12/20 04:16:49;;;;;;;;;;;5.20;99.90;;;;;;5071690;28;19972;-37
2021/12/20 04:19:16;;;;;;;;;;;5.20;99.90;;;;;;5072000;28;20300;-38
2021/12/20 04:21:43;;;;;;;;;;;5.20;99.90;;;;;;5072758;28;19970;-38
2021/12/20 04:24:10;;;;;;;;;;;5.10;99.90;;;;;;5076619;28;19935;-38
2021/12/20 04:26:36;;;;;;;;;;;5.10;99.90;;;;;;5074540;28;20011;-37
2021/12/20 04:29:03;;;;;;;;;;;5.10;99.90;;;;;;5076256;28;20430;-38
2021/12/20 04:31:31;;;;;;;;;;;5.10;99.90;;;;;;5075338;28;20029;-38
2021/12/20 04:33:59;;;;;;;;;;;5.10;99.90;;;;;;5076447;28;19925;-38
2021/12/20 04:36:26;;;;;;;;;;;5.00;99.90;;;;;;5073042;28;20040;-38
2021/12/20 04:38:52;;;;;;;;;;;5.00;99.90;;;;;;5073370;28;19944;-38
2021/12/20 04:41:19;;;;;;;;;;;5.00;99.90;;;;;;5071618;28;20239;-38
2021/12/20 04:43:46;;;;;;;;;;;4.90;99.90;;;;;;5075100;28;19924;-38
2021/12/20 04:46:13;;;;;;;;;;;4.90;99.90;;;;;;5074918;28;20009;-38
2021/12/20 04:48:40;;;;;;;;;;;4.90;99.90;;;;;;5075735;28;19989;-38
2021/12/20 04:51:08;;;;;;;;;;;4.90;99.90;;;;;;5076081;28;19924;-39
2021/12/20 04:53:34;;;;;;;;;;;4.90;99.90;;;;;;5075037;28;19980;-38
2021/12/20 04:56:01;;;;;;;;;;;4.90;99.90;;;;;;5075656;28;20320;-38
2021/12/20 04:58:28;;;;;;;;;;;4.80;99.90;;;;;;5074812;28;19971;-38
2021/12/20 05:00:55;;;;;;;;;;;4.80;99.90;;;;;;5070529;28;19931;-38
2021/12/20 05:03:21;;;;;;;;;;;4.80;99.90;;;;;;5069264;28;19971;-38
2021/12/20 05:05:48;;;;;;;;;;;4.80;99.90;;;;;;5075181;28;19976;-38
2021/12/20 05:08:16;;;;;;;;;;;4.70;99.90;;;;;;5074363;28;20273;-38
2021/12/20 05:10:43;;;;;;;;;;;4.70;99.90;;;;;;5074052;28;20019;-38
2021/12/20 05:13:11;;;;;;;;;;;4.70;99.90;;;;;;5073761;28;19924;-38
2021/12/20 05:15:38;;;;;;;;;;;4.70;99.90;;;;;;5089824;28;19931;-38
2021/12/20 05:18:04;;;;;;;;;;;4.60;99.90;;;;;;5094540;28;19928;-38
2021/12/20 05:20:31;;;;;;;;;;;4.60;99.90;;;;;;5089598;28;19932;-39
2021/12/20 05:22:59;;;;;;;;;;;4.60;99.90;;;;;;5075268;28;19975;-37
2021/12/20 05:25:27;;;;;;;;;;;4.50;99.90;;;;;;5075424;28;20346;-37
2021/12/20 05:27:53;;;;;;;;;;;4.50;99.90;;;;;;5073350;28;20368;-37
2021/12/20 05:30:20;;;;;;;;;;;4.40;99.90;;;;;;5075127;28;19998;-38
2021/12/20 05:32:47;;;;;;;;;;;4.40;99.90;;;;;;5072461;28;20028;-39
2021/12/20 05:35:15;;;;;;;;;;;4.40;99.90;;;;;;5072298;28;19931;-38
2021/12/20 05:37:41;;;;;;;;;;;4.40;99.90;;;;;;5069385;28;20311;-38
2021/12/20 05:40:09;;;;;;;;;;;4.30;99.90;;;;;;5059592;28;20348;-38
2021/12/20 05:42:37;;;;;;;;;;;4.20;99.90;;;;;;5068459;28;20610;-38
2021/12/20 05:45:04;;;;;;;;;;;4.20;99.90;;;;;;5083209;28;19924;-37
2021/12/20 05:47:30;;;;;;;;;;;4.10;99.90;;;;;;5094599;28;19979;-37
2021/12/20 05:49:57;;;;;;;;;;;4.10;99.90;;;;;;5094069;28;20419;-37
2021/12/20 05:52:24;;;;;;;;;;;4.00;99.90;;;;;;5081565;28;20368;-37
2021/12/20 05:54:51;;;;;;;;;;;4.00;99.90;;;;;;5072555;28;19924;-37
2021/12/20 05:57:18;;;;;;;;;;;4.00;99.90;;;;;;5074868;28;20007;-37
2021/12/20 05:59:46;;;;;;;;;;;4.00;99.90;;;;;;5073248;28;20011;-37
2021/12/20 06:02:12;;;;;;;;;;;3.90;99.90;;;;;;5072899;28;19934;-37
2021/12/20 06:04:39;;;;;;;;;;;3.80;99.90;;;;;;5073007;28;19925;-37
2021/12/20 06:07:08;;;;;;;;;;;3.80;99.90;;;;;;5094040;28;19924;-37
2021/12/20 06:09:35;;;;;;;;;;;3.80;99.90;;;;;;5072470;28;20694;-36
2021/12/20 06:12:02;;;;;;;;;;;3.70;99.90;;;;;;5106971;28;19973;-38
2021/12/20 06:14:29;;;;;;;;;;;3.70;99.90;;;;;;5073806;28;19925;-37
2021/12/20 06:16:58;;;;;;;;;;;3.70;99.90;;;;;;5069819;28;19964;-37
2021/12/20 06:19:25;;;;;;;;;;;3.70;99.90;;;;;;5071349;28;19932;-37
2021/12/20 06:21:52;;;;;;;;;;;3.60;99.90;;;;;;5073932;28;19940;-37
2021/12/20 06:24:18;;;;;;;;;;;3.60;99.90;;;;;;5071273;28;20015;-38
2021/12/20 06:26:45;;;;;;;;;;;3.50;99.90;;;;;;5062010;28;20373;-36
2021/12/20 06:29:12;;;;;;;;;;;3.50;99.90;;;;;;5070644;28;19979;-37
2021/12/20 06:31:39;;;;;;;;;;;3.40;99.90;;;;;;5066186;28;19931;-37
2021/12/20 06:34:07;;;;;;;;;;;3.40;99.90;;;;;;5088897;28;20019;-37
2021/12/20 06:36:34;;;;;;;;;;;3.30;99.90;;;;;;5073690;28;20027;-38
2021/12/20 06:39:00;;;;;;;;;;;3.30;99.90;;;;;;5059142;28;20407;-37
2021/12/20 06:41:27;;;;;;;;;;;3.30;99.90;;;;;;5053845;28;19986;-36
2021/12/20 06:43:54;;;;;;;;;;;3.20;99.90;;;;;;5059847;28;19967;-39
2021/12/20 06:46:22;;;;;;;;;;;3.20;99.90;;;;;;5074026;28;19924;-37
2021/12/20 06:48:48;;;;;;;;;;;3.20;99.90;;;;;;5068939;28;19990;-39
2021/12/20 06:51:17;;;;;;;;;;;3.10;99.90;;;;;;5053710;28;19928;-36
2021/12/20 06:53:43;;;;;;;;;;;3.10;99.90;;;;;;5065268;28;19985;-36
2021/12/20 06:56:12;;;;;;;;;;;3.10;99.90;;;;;;5071479;28;19932;-38
2021/12/20 06:58:39;;;;;;;;;;;3.10;99.90;;;;;;5054293;28;20424;-37
2021/12/20 07:01:05;;;;;;;;;;;3.00;99.90;;;;;;5061018;28;19925;-37
2021/12/20 07:03:32;;;;;;;;;;;2.90;99.90;;;;;;5068970;28;20036;-38
2021/12/20 07:05:59;;;;;;;;;;;2.90;99.90;;;;;;5068688;28;19972;-38
2021/12/20 07:08:27;;;;;;;;;;;2.90;99.90;;;;;;5070829;28;19943;-38
2021/12/20 07:10:54;;;;;;;;;;;2.90;99.90;;;;;;5063945;28;19925;-38
2021/12/20 07:13:23;;;;;;;;;;;2.80;99.90;;;;;;5070035;28;20204;-37
2021/12/20 07:15:50;;;;;;;;;;;2.80;99.90;;;;;;5069056;28;19924;-37
2021/12/20 07:18:16;;;;;;;;;;;2.70;99.90;;;;;;5071270;28;20649;-37
2021/12/20 07:20:43;;;;;;;;;;;2.70;99.90;;;;;;5072015;28;20326;-36
2021/12/20 07:23:10;;;;;;;;;;;2.70;99.90;;;;;;5069989;28;19976;-39
2021/12/20 07:25:38;;;;;;;;;;;2.70;99.90;;;;;;5071228;28;19924;-38
2021/12/20 07:28:05;;;;;;;;;;;2.70;99.90;;;;;;5071092;28;19924;-37
2021/12/20 07:30:32;;;;;;;;;;;2.60;99.90;;;;;;5071816;28;19925;-38
2021/12/20 07:32:59;;;;;;;;;;;2.60;99.90;;;;;;5069984;28;19932;-38
2021/12/20 07:35:27;;;;;;;;;;;2.60;99.90;;;;;;5070570;28;20346;-36
2021/12/20 07:37:56;;;;;;;;;;;2.60;99.90;;;;;;5067780;28;20012;-37
2021/12/20 07:40:23;;;;;;;;;;;2.60;99.90;;;;;;5071338;28;20023;-37
2021/12/20 07:42:51;;;;;;;;;;;2.50;99.90;;;;;;5071929;28;19925;-36
2021/12/20 07:45:18;;;;;;;;;;;2.50;99.90;;;;;;5070328;28;19929;-38
2021/12/20 07:47:45;;;;;;;;;;;2.50;99.90;;;;;;5071481;28;19976;-36
2021/12/20 07:50:12;;;;;;;;;;;2.40;99.90;;;;;;5072086;28;20385;-36
2021/12/20 07:52:39;;;;;;;;;;;2.40;99.90;;;;;;5070785;28;20000;-37
2021/12/20 07:55:06;;;;;;;;;;;2.40;99.90;;;;;;5071737;28;19924;-36
2021/12/20 07:57:33;;;;;;;;;;;2.40;99.90;;;;;;5074385;28;19924;-36
2021/12/20 08:00:01;;;;;;;;;;;2.40;99.90;;;;;;5075001;28;19964;-37
2021/12/20 08:02:28;;;;;;;;;;;2.40;99.90;;;;;;5073347;28;20340;-39
2021/12/20 08:04:54;;;;;;;;;;;2.40;99.90;;;;;;5075487;28;20015;-36
2021/12/20 08:07:22;;;;;;;;;;;2.30;99.90;;;;;;5075743;28;19935;-36
2021/12/20 08:09:50;;;;;;;;;;;2.30;99.90;;;;;;5073443;28;19951;-37
2021/12/20 08:12:17;;;;;;;;;;;2.30;99.90;;;;;;5072867;28;19924;-37
2021/12/20 08:14:43;;;;;;;;;;;2.30;99.90;;;;;;5074832;28;19980;-36
2021/12/20 08:17:11;;;;;;;;;;;2.30;99.90;;;;;;5071612;28;20335;-35
2021/12/20 08:19:38;;;;;;;;;;;2.30;99.90;;;;;;5075698;28;19936;-36
2021/12/20 08:22:05;;;;;;;;;;;2.30;99.90;;;;;;5073917;28;19978;-37
2021/12/20 08:24:32;;;;;;;;;;;2.30;99.90;;;;;;5075472;28;19928;-36
2021/12/20 08:26:59;;;;;;;;;;;2.30;99.90;;;;;;5074755;28;19924;-36
2021/12/20 08:29:26;;;;;;;;;;;2.30;99.90;;;;;;5075351;28;19931;-37
2021/12/20 08:31:53;;;;;;;;;;;2.30;99.90;;;;;;5073148;28;19924;-37
2021/12/20 08:34:21;;;;;;;;;;;2.30;99.90;;;;;;5073244;28;19994;-36
2021/12/20 08:36:47;;;;;;;;;;;2.30;99.90;;;;;;5073201;28;19963;-36
2021/12/20 08:39:19;;;;;;;;;;;2.30;99.90;;;;;;5075107;28;19929;-36
2021/12/20 08:41:46;;;;;;;;;;;2.30;99.90;;;;;;5074261;28;19979;-37
2021/12/20 08:44:13;;;;;;;;;;;2.30;99.90;;;;;;5072507;28;19925;-36
2021/12/20 08:46:40;;;;;;;;;;;2.30;99.90;;;;;;5073583;28;20368;-36
2021/12/20 08:49:08;;;;;;;;;;;2.30;99.90;;;;;;5073905;28;19975;-36
2021/12/20 08:51:36;;;;;;;;;;;2.40;99.90;;;;;;5074001;28;20364;-38
2021/12/20 08:54:03;;;;;;;;;;;2.30;99.90;;;;;;5073360;28;19925;-36
2021/12/20 08:56:30;;;;;;;;;;;2.30;99.90;;;;;;5074110;28;20419;-37
2021/12/20 08:58:57;;;;;;;;;;;2.40;99.90;;;;;;5073443;28;20378;-37
2021/12/20 09:01:24;;;;;;;;;;;2.40;99.90;;;;;;5073794;28;19967;-37
2021/12/20 09:03:50;;;;;;;;;;;2.40;99.90;;;;;;5070772;28;19924;-36
2021/12/20 09:06:21;;;;;;;;;;;2.40;99.90;;;;;;5072301;28;19960;-36
2021/12/20 09:08:50;;;;;;;;;;;2.40;99.90;;;;;;5072437;28;19924;-37
2021/12/20 09:11:17;;;;;;;;;;;2.30;99.90;;;;;;5070699;28;19930;-36
2021/12/20 09:13:44;;;;;;;;;;;2.40;99.90;;;;;;5071622;28;20400;-36
2021/12/20 09:16:10;;;;;;;;;;;2.40;99.90;;;;;;5073065;28;19964;-36
2021/12/20 09:18:37;;;;;;;;;;;2.40;99.90;;;;;;5073828;28;19925;-37
2021/12/20 09:21:04;;;;;;;;;;;2.50;99.90;;;;;;5071738;28;19951;-37
2021/12/20 09:23:32;;;;;;;;;;;2.60;99.90;;;;;;5072512;28;20039;-36
2021/12/20 09:26:00;;;;;;;;;;;2.60;99.90;;;;;;5072346;28;20432;-36
2021/12/20 09:28:27;;;;;;;;;;;2.60;99.90;;;;;;5072483;28;19924;-38
2021/12/20 09:30:54;;;;;;;;;;;2.60;99.90;;;;;;5073294;28;19970;-38
2021/12/20 09:33:20;;;;;;;;;;;2.70;99.90;;;;;;5073560;28;19925;-37
2021/12/20 09:35:49;;;;;;;;;;;2.80;99.90;;;;;;5072573;28;20015;-36
2021/12/20 09:38:17;;;;;;;;;;;2.80;99.90;;;;;;5071859;28;20016;-37
2021/12/20 09:41:01;;;;;;;;;;;2.90;99.90;;;;;;5075168;28;20418;-38
2021/12/20 09:43:30;;;;;;;;;;;3.00;99.90;;;;;;5060862;28;19984;-37
2021/12/20 09:45:57;;;;;;;;;;;3.10;99.90;;;;;;5072999;28;20451;-36
2021/12/20 09:48:24;;;;;;;;;;;3.10;99.90;;;;;;5058785;28;20625;-38
2021/12/20 09:50:50;;;;;;;;;;;3.30;99.90;;;;;;5068631;28;20406;-36
2021/12/20 09:53:17;;;;;;;;;;;3.30;99.90;;;;;;5071892;28;19964;-36
2021/12/20 09:55:44;;;;;;;;;;;3.40;99.90;;;;;;5073015;28;19929;-36
2021/12/20 09:58:12;;;;;;;;;;;3.50;99.90;;;;;;5073175;28;19980;-37
2021/12/20 10:00:40;;;;;;;;;;;3.60;99.90;;;;;;5072229;28;19929;-36
2021/12/20 10:03:08;;;;;;;;;;;3.70;99.90;;;;;;5073135;28;20015;-36
2021/12/20 10:05:35;;;;;;;;;;;3.80;99.90;;;;;;5072733;28;20015;-37
2021/12/20 10:08:12;;;;;;;;;;;3.90;99.90;;;;;;5072941;28;19983;-37
2021/12/20 10:10:39;;;;;;;;;;;3.90;99.90;;;;;;5070925;28;19996;-38
2021/12/20 10:13:06;;;;;;;;;;;4.00;99.90;;;;;;5073381;28;20438;-36
2021/12/20 10:15:34;;;;;;;;;;;4.10;99.90;;;;;;5072376;28;19970;-36
2021/12/20 10:18:02;;;;;;;;;;;4.20;99.90;;;;;;5072031;28;19924;-37
2021/12/20 10:20:29;;;;;;;;;;;4.20;99.90;;;;;;5071944;28;20457;-36
2021/12/20 10:23:07;;;;;;;;;;;4.30;99.90;;;;;;5071480;28;19928;-35
2021/12/20 10:25:35;;;;;;;;;;;4.40;99.90;;;;;;5065577;28;19983;-38
2021/12/20 10:28:04;;;;;;;;;;;4.50;99.90;;;;;;5072132;28;19924;-37
2021/12/20 10:30:32;;;;;;;;;;;4.60;99.90;;;;;;5072011;28;19928;-35
2021/12/20 10:32:59;;;;;;;;;;;4.60;99.90;;;;;;5071672;28;20360;-36
2021/12/20 10:35:32;;;;;;;;;;;4.60;99.90;;;;;;5071318;28;19929;-36
2021/12/20 10:37:59;;;;;;;;;;;4.70;99.90;;;;;;5073171;28;19981;-35
2021/12/20 10:40:26;;;;;;;;;;;4.70;99.90;;;;;;5072806;28;20074;-36
2021/12/20 10:42:54;;;;;;;;;;;4.80;99.90;;;;;;5072776;28;20333;-36
2021/12/20 10:45:21;;;;;;;;;;;4.80;99.90;;;;;;5071801;28;19924;-36
2021/12/20 10:47:47;;;;;;;;;;;4.90;99.90;;;;;;5072784;28;19924;-37
2021/12/20 10:50:21;;;;;;;;;;;4.90;99.90;;;;;;5071521;28;19924;-36
2021/12/20 10:52:49;;;;;;;;;;;5.00;99.90;;;;;;5071528;28;19924;-37
2021/12/20 10:55:18;;;;;;;;;;;5.00;99.90;;;;;;5104920;28;19971;-36
2021/12/20 10:57:45;;;;;;;;;;;5.10;99.90;;;;;;5072488;28;20368;-36
2021/12/20 11:00:15;;;;;;;;;;;5.20;99.90;;;;;;5071203;28;19928;-36
2021/12/20 11:03:18;;;;;;;;;;;5.20;99.90;;;;;;5070086;28;19931;-37
2021/12/20 11:05:59;;;;;;;;;;;5.30;99.90;;;;;;5072344;28;19936;-37
2021/12/20 11:11:11;;;;;;;;;;;5.30;99.90;;;;;;5070026;28;20053;-38
2021/12/20 11:13:38;;;;;;;;;;;5.40;99.90;;;;;;5069042;28;19932;-37
2021/12/20 11:16:20;;;;;;;;;;;5.40;99.90;;;;;;5059546;28;20002;-38
2021/12/20 11:18:46;;;;;;;;;;;5.40;99.90;;;;;;5070657;28;19929;-37
2021/12/20 11:21:14;;;;;;;;;;;5.40;99.10;;;;;;5054447;28;20013;-38
2021/12/20 11:23:42;;;;;;;;;;;5.50;99.90;;;;;;5066997;28;20011;-37
2021/12/20 11:26:09;;;;;;;;;;;5.60;99.90;;;;;;5070180;28;20015;-37
2021/12/20 11:28:36;;;;;;;;;;;5.60;97.00;;;;;;5071582;28;19932;-37
2021/12/20 11:31:04;;;;;;;;;;;5.60;98.00;;;;;;5070787;28;19932;-37
2021/12/20 11:33:31;;;;;;;;;;;5.70;93.50;;;;;;5069380;28;19924;-37
2021/12/20 11:35:57;;;;;;;;;;;5.70;96.60;;;;;;5072236;28;19931;-37
2021/12/20 11:38:24;;;;;;;;;;;5.80;95.50;;;;;;5067555;28;20337;-37
2021/12/20 11:40:52;;;;;;;;;;;5.80;95.40;;;;;;5053092;28;20357;-37
2021/12/20 11:43:19;;;;;;;;;;;5.80;95.70;;;;;;5071639;28;20015;-37
2021/12/20 11:45:46;;;;;;;;;;;5.80;95.10;;;;;;5072193;28;19929;-37
2021/12/20 11:48:13;;;;;;;;;;;5.90;94.60;;;;;;5063844;28;20013;-37
2021/12/20 11:50:40;;;;;;;;;;;5.90;95.00;;;;;;5069358;28;19932;-37
2021/12/20 11:53:08;;;;;;;;;;;5.90;93.70;;;;;;5102515;28;20441;-37
2021/12/20 11:55:35;;;;;;;;;;;5.90;94.50;;;;;;5070846;28;19931;-37
2021/12/20 11:58:03;;;;;;;;;;;6.00;94.30;;;;;;5070954;28;19970;-37
2021/12/20 12:00:30;;;;;;;;;;;6.00;95.60;;;;;;5067485;28;20377;-37
2021/12/20 12:02:58;;;;;;;;;;;6.00;94.50;;;;;;5060256;28;19931;-37
2021/12/20 12:05:30;;;;;;;;;;;6.00;94.70;;;;;;5081567;28;19924;-37
2021/12/20 12:07:56;;;;;;;;;;;6.10;93.20;;;;;;5070294;28;19933;-37
2021/12/20 12:10:28;;;;;;;;;;;6.10;94.10;;;;;;5070372;28;19935;-38
2021/12/20 12:13:00;;;;;;;;;;;6.10;95.00;;;;;;5057001;28;20461;-38
2021/12/20 12:15:42;;;;;;;;;;;6.10;93.30;;;;;;5049432;28;20415;-38
2021/12/20 12:18:10;;;;;;;;;;;6.20;93.90;;;;;;5059623;28;19925;-38
2021/12/20 12:20:38;;;;;;;;;;;6.10;93.20;;;;;;5053234;28;19984;-37
2021/12/20 12:23:12;;;;;;;;;;;6.20;93.10;;;;;;5054784;28;20293;-38
2021/12/20 12:25:40;;;;;;;;;;;6.20;93.40;;;;;;5086436;28;19982;-40
2021/12/20 12:28:07;;;;;;;;;;;6.20;93.50;;;;;;5063145;28;19929;-39
2021/12/20 12:30:36;;;;;;;;;;;6.20;94.80;;;;;;5057271;28;19960;-40
2021/12/20 12:33:19;;;;;;;;;;;6.20;92.10;;;;;;5061379;28;19979;-37
2021/12/20 12:35:49;;;;;;;;;;;6.20;92.90;;;;;;5054590;28;19932;-37
2021/12/20 12:38:17;;;;;;;;;;;6.20;92.40;;;;;;5057376;28;20019;-38
2021/12/20 12:40:45;;;;;;;;;;;6.20;92.00;;;;;;5055120;28;20297;-38
2021/12/20 12:43:12;;;;;;;;;;;6.20;94.10;;;;;;5059048;28;19924;-38
2021/12/20 12:45:50;;;;;;;;;;;6.20;93.00;;;;;;5056592;28;19925;-37
2021/12/20 12:48:33;;;;;;;;;;;6.20;92.20;;;;;;5068292;28;19929;-40
2021/12/20 12:51:03;;;;;;;;;;;6.20;91.70;;;;;;5057102;28;19931;-38
2021/12/20 12:53:40;;;;;;;;;;;6.20;92.70;;;;;;5076876;28;19978;-36
2021/12/20 12:56:35;;;;;;;;;;;6.30;91.70;;;;;;5072152;28;20376;-38
2021/12/20 12:59:22;;;;;;;;;;;6.20;91.40;;;;;;5050253;28;19974;-39
2021/12/20 13:01:51;;;;;;;;;;;6.20;90.00;;;;;;5067644;28;19925;-38
2021/12/20 13:04:18;;;;;;;;;;;6.20;89.10;;;;;;5055892;28;19971;-37
2021/12/20 13:06:44;;;;;;;;;;;6.10;84.40;;;;;;5072852;28;19931;-37
2021/12/20 13:09:11;;;;;;;;;;;6.10;87.40;;;;;;5064214;28;20351;-37
2021/12/20 13:11:38;;;;;;;;;;;6.10;85.00;;;;;;5057768;28;19932;-37
2021/12/20 13:14:07;;;;;;;;;;;6.00;87.90;;;;;;5064772;28;19975;-37
2021/12/20 13:16:37;;;;;;;;;;;6.00;89.60;;;;;;5056330;28;19925;-36
2021/12/20 13:19:06;;;;;;;;;;;6.00;90.50;;;;;;5072340;28;19925;-38
2021/12/20 13:21:49;;;;;;;;;;;6.00;85.10;;;;;;5069571;28;19972;-37
2021/12/20 13:24:15;;;;;;;;;;;6.00;90.00;;;;;;5075657;28;20015;-37
2021/12/20 13:26:42;;;;;;;;;;;6.00;85.60;;;;;;5062556;28;19947;-36
2021/12/20 13:29:14;;;;;;;;;;;5.90;90.70;;;;;;5073559;28;19930;-36
2021/12/20 13:31:41;;;;;;;;;;;6.00;85.30;;;;;;5081994;28;20342;-38
2021/12/20 13:34:11;;;;;;;;;;;5.90;89.70;;;;;;5091127;28;20375;-40
2021/12/20 13:36:38;;;;;;;;;;;5.90;82.80;;;;;;5069871;28;19944;-41
2021/12/20 13:39:05;;;;;;;;;;;5.90;86.00;;;;;;5073812;28;19978;-37
2021/12/20 13:41:33;;;;;;;;;;;5.90;87.60;;;;;;5106429;27;20459;-37
2021/12/20 13:44:01;;;;;;;;;;;5.80;86.30;;;;;;5072996;28;19931;-36
2021/12/20 13:46:30;;;;;;;;;;;5.80;87.20;;;;;;5083277;28;20029;-37
2021/12/20 13:49:01;;;;;;;;;;;5.80;85.90;;;;;;5073243;28;19936;-36
2021/12/20 13:51:33;;;;;;;;;;;5.80;90.50;;;;;;5071869;28;19968;-39
2021/12/20 13:54:00;;;;;;;;;;;5.70;90.60;;;;;;5072640;28;19924;-36
2021/12/20 13:56:27;;;;;;;;;;;5.70;91.60;;;;;;5071755;28;19924;-38
2021/12/20 13:58:53;;;;;;;;;;;5.60;91.30;;;;;;5103448;28;19925;-39
2021/12/20 14:01:23;;;;;;;;;;;5.60;91.10;;;;;;5087151;28;19925;-36
2021/12/20 14:03:49;;;;;;;;;;;5.50;91.00;;;;;;5070146;28;20353;-37
2021/12/20 14:06:37;;;;;;;;;;;5.60;91.60;;;;;;5068406;28;19960;-36
2021/12/20 14:09:06;;;;;;;;;;;5.50;91.50;;;;;;5062740;28;19924;-38
2021/12/20 14:11:33;;;;;;;;;;;5.50;92.30;;;;;;5076887;28;19931;-36
2021/12/20 14:14:08;;;;;;;;;;;5.40;91.80;;;;;;5062500;28;20316;-38
2021/12/20 14:16:49;;;;;;;;;;;5.40;92.80;;;;;;5068660;28;20332;-39
2021/12/20 14:19:16;;;;;;;;;;;5.30;93.00;;;;;;5065158;28;19928;-35
2021/12/20 14:21:44;;;;;;;;;;;5.30;93.20;;;;;;5060992;28;19971;-38
2021/12/20 14:24:11;;;;;;;;;;;5.30;93.00;;;;;;5076233;28;19956;-37
2021/12/20 14:26:38;;;;;;;;;;;5.20;94.20;;;;;;5063376;28;19924;-37
2021/12/20 14:29:05;;;;;;;;;;;5.20;94.30;;;;;;5066686;28;20032;-37
2021/12/20 14:31:36;;;;;;;;;;;5.10;94.60;;;;;;5065051;28;20357;-36
2021/12/20 14:34:03;;;;;;;;;;;5.00;94.20;;;;;;5071654;28;20045;-36
2021/12/20 14:36:33;;;;;;;;;;;4.90;94.40;;;;;;5072627;28;19924;-37
2021/12/20 14:39:08;;;;;;;;;;;4.90;95.00;;;;;;5055702;28;20013;-35
2021/12/20 14:41:37;;;;;;;;;;;4.80;96.00;;;;;;5052656;28;19924;-36
2021/12/20 14:44:05;;;;;;;;;;;4.80;95.90;;;;;;5067582;28;19932;-39
2021/12/20 14:46:35;;;;;;;;;;;4.70;95.70;;;;;;5066860;28;20453;-36
2021/12/20 14:49:13;;;;;;;;;;;4.70;96.40;;;;;;5070912;28;20420;-36